sensor_id;sensor_type;location;lat;lon;timestamp;pressure;altitude;pressure_sealevel;temperature;humidity
71195;BME280;58908;51.426;7.714;2023-11-21T00:01:01;99080.91;;;4.97;100.00
71195;BME280;58908;51.426;7.714;2023-11-21T00:03:28;99086.97;;;4.98;100.00
71195;BME280;58908;51.426;7.714;2023-11-21T00:05:55;99093.69;;;5.03;100.00
71195;BME280;58908;51.426;7.714;2023-11-21T00:08:22;99085.75;;;5.06;100.00
71195;BME280;58908;51.426;7.714;2023-11-21T00:10:49;99082.81;;;5.12;100.00
71195;BME280;58908;51.426;7.714;2023-11-21T00:13:16;99094.72;;;5.19;100.00
71195;BME280;58908;51.426;7.714;2023-11-21T00:15:42;99088.41;;;5.23;100.00
71195;BME280;58908;51.426;7.714;2023-11-21T00:18:09;99083.94;;;5.25;100.00
71195;BME280;58908;51.426;7.714;2023-11-21T00:20:35;99094.19;;;5.30;100.00
71195;BME280;58908;51.426;7.714;2023-11-21T00:23:01;99090.22;;;5.40;100.00
71195;BME280;58908;51.426;7.714;2023-11-21T00:25:29;99090.09;;;5.43;100.00
71195;BME280;58908;51.426;7.714;2023-11-21T00:27:56;99086.47;;;5.45;100.00
71195;BME280;58908;51.426;7.714;2023-11-21T00:30:22;99095.97;;;5.48;100.00
71195;BME280;58908;51.426;7.714;2023-11-21T00:32:48;99094.13;;;5.50;100.00
71195;BME280;58908;51.426;7.714;2023-11-21T00:35:15;99093.97;;;5.53;100.00
71195;BME280;58908;51.426;7.714;2023-11-21T00:37:41;99098.91;;;5.59;100.00
71195;BME280;58908;51.426;7.714;2023-11-21T00:40:08;99103.94;;;5.63;100.00
71195;BME280;58908;51.426;7.714;2023-11-21T00:42:36;99098.53;;;5.66;100.00
71195;BME280;58908;51.426;7.714;2023-11-21T00:45:03;99100.94;;;5.71;100.00
71195;BME280;58908;51.426;7.714;2023-11-21T00:47:29;99101.66;;;5.74;100.00
71195;BME280;58908;51.426;7.714;2023-11-21T00:49:56;99098.00;;;5.77;100.00
71195;BME280;58908;51.426;7.714;2023-11-21T00:52:22;99093.53;;;5.80;100.00
71195;BME280;58908;51.426;7.714;2023-11-21T00:54:49;99092.31;;;5.87;100.00
71195;BME280;58908;51.426;7.714;2023-11-21T00:57:15;99099.84;;;5.93;100.00
71195;BME280;58908;51.426;7.714;2023-11-21T00:59:43;99087.47;;;5.97;100.00
71195;BME280;58908;51.426;7.714;2023-11-21T01:02:09;99090.78;;;6.00;100.00
71195;BME280;58908;51.426;7.714;2023-11-21T01:04:36;99097.66;;;6.03;100.00
71195;BME280;58908;51.426;7.714;2023-11-21T01:07:02;99095.84;;;6.03;100.00
71195;BME280;58908;51.426;7.714;2023-11-21T01:09:30;99101.78;;;6.07;100.00
71195;BME280;58908;51.426;7.714;2023-11-21T01:11:56;99106.09;;;6.08;100.00
71195;BME280;58908;51.426;7.714;2023-11-21T01:14:23;99094.72;;;6.09;100.00
71195;BME280;58908;51.426;7.714;2023-11-21T01:16:52;99100.66;;;6.12;100.00
71195;BME280;58908;51.426;7.714;2023-11-21T01:19:19;99097.97;;;6.14;100.00
71195;BME280;58908;51.426;7.714;2023-11-21T01:21:45;99099.56;;;6.16;100.00
71195;BME280;58908;51.426;7.714;2023-11-21T01:24:12;99103.03;;;6.17;100.00
71195;BME280;58908;51.426;7.714;2023-11-21T01:26:38;99107.34;;;6.18;100.00
71195;BME280;58908;51.426;7.714;2023-11-21T01:29:04;99108.13;;;6.20;100.00
71195;BME280;58908;51.426;7.714;2023-11-21T01:31:31;99112.34;;;6.22;100.00
71195;BME280;58908;51.426;7.714;2023-11-21T01:33:58;99118.34;;;6.24;100.00
71195;BME280;58908;51.426;7.714;2023-11-21T01:36:29;99107.88;;;6.24;100.00
71195;BME280;58908;51.426;7.714;2023-11-21T01:38:56;99104.28;;;6.27;100.00
71195;BME280;58908;51.426;7.714;2023-11-21T01:41:24;99114.69;;;6.28;100.00
71195;BME280;58908;51.426;7.714;2023-11-21T01:43:51;99112.91;;;6.29;100.00
71195;BME280;58908;51.426;7.714;2023-11-21T01:46:18;99109.44;;;6.28;100.00
71195;BME280;58908;51.426;7.714;2023-11-21T01:48:45;99104.13;;;6.30;100.00
71195;BME280;58908;51.426;7.714;2023-11-21T01:51:13;99109.28;;;6.31;100.00
71195;BME280;58908;51.426;7.714;2023-11-21T01:53:39;99109.19;;;6.33;100.00
71195;BME280;58908;51.426;7.714;2023-11-21T01:56:06;99105.75;;;6.32;100.00
71195;BME280;58908;51.426;7.714;2023-11-21T01:58:34;99106.50;;;6.34;100.00
71195;BME280;58908;51.426;7.714;2023-11-21T02:01:01;99105.56;;;6.35;100.00
71195;BME280;58908;51.426;7.714;2023-11-21T02:03:27;99103.72;;;6.37;100.00
71195;BME280;58908;51.426;7.714;2023-11-21T02:05:53;99109.88;;;6.36;100.00
71195;BME280;58908;51.426;7.714;2023-11-21T02:08:21;99107.38;;;6.35;100.00
71195;BME280;58908;51.426;7.714;2023-11-21T02:10:47;99103.88;;;6.34;100.00
71195;BME280;58908;51.426;7.714;2023-11-21T02:13:13;99112.66;;;6.33;100.00
71195;BME280;58908;51.426;7.714;2023-11-21T02:15:41;99118.84;;;6.32;100.00
71195;BME280;58908;51.426;7.714;2023-11-21T02:18:07;99127.63;;;6.31;100.00
71195;BME280;58908;51.426;7.714;2023-11-21T02:20:36;99128.44;;;6.32;100.00
71195;BME280;58908;51.426;7.714;2023-11-21T02:23:05;99127.53;;;6.33;100.00
71195;BME280;58908;51.426;7.714;2023-11-21T02:25:32;99128.31;;;6.35;100.00
71195;BME280;58908;51.426;7.714;2023-11-21T02:28:00;99131.69;;;6.37;100.00
71195;BME280;58908;51.426;7.714;2023-11-21T02:30:26;99140.38;;;6.37;100.00
71195;BME280;58908;51.426;7.714;2023-11-21T02:32:54;99143.88;;;6.38;100.00
71195;BME280;58908;51.426;7.714;2023-11-21T02:35:21;99142.09;;;6.38;100.00
71195;BME280;58908;51.426;7.714;2023-11-21T02:37:48;99148.13;;;6.40;100.00
71195;BME280;58908;51.426;7.714;2023-11-21T02:40:16;99145.41;;;6.42;100.00
71195;BME280;58908;51.426;7.714;2023-11-21T02:42:46;99149.72;;;6.43;100.00
71195;BME280;58908;51.426;7.714;2023-11-21T02:45:12;99158.50;;;6.42;100.00
71195;BME280;58908;51.426;7.714;2023-11-21T02:47:39;99148.94;;;6.41;100.00
71195;BME280;58908;51.426;7.714;2023-11-21T02:50:06;99146.25;;;6.42;100.00
71195;BME280;58908;51.426;7.714;2023-11-21T02:52:33;99150.50;;;6.45;100.00
71195;BME280;58908;51.426;7.714;2023-11-21T02:55:00;99150.41;;;6.46;100.00
71195;BME280;58908;51.426;7.714;2023-11-21T02:57:27;99146.09;;;6.45;100.00
71195;BME280;58908;51.426;7.714;2023-11-21T02:59:54;99140.47;;;6.53;100.00
71195;BME280;58908;51.426;7.714;2023-11-21T03:02:20;99143.09;;;6.53;100.00
71195;BME280;58908;51.426;7.714;2023-11-21T03:04:47;99150.19;;;6.51;100.00
71195;BME280;58908;51.426;7.714;2023-11-21T03:07:14;99148.66;;;6.47;100.00
71195;BME280;58908;51.426;7.714;2023-11-21T03:09:40;99141.78;;;6.44;100.00
71195;BME280;58908;51.426;7.714;2023-11-21T03:12:07;99142.78;;;6.42;100.00
71195;BME280;58908;51.426;7.714;2023-11-21T03:14:35;99148.19;;;6.39;100.00
71195;BME280;58908;51.426;7.714;2023-11-21T03:17:01;99148.47;;;6.33;100.00
71195;BME280;58908;51.426;7.714;2023-11-21T03:19:30;99154.03;;;6.27;100.00
71195;BME280;58908;51.426;7.714;2023-11-21T03:21:56;99158.41;;;6.26;100.00
71195;BME280;58908;51.426;7.714;2023-11-21T03:24:22;99160.34;;;6.23;100.00
71195;BME280;58908;51.426;7.714;2023-11-21T03:26:49;99162.97;;;6.23;100.00
71195;BME280;58908;51.426;7.714;2023-11-21T03:29:18;99157.88;;;6.20;100.00
71195;BME280;58908;51.426;7.714;2023-11-21T03:31:45;99168.34;;;6.20;100.00
71195;BME280;58908;51.426;7.714;2023-11-21T03:34:14;99167.34;;;6.22;100.00
71195;BME280;58908;51.426;7.714;2023-11-21T03:36:40;99175.22;;;6.22;100.00
71195;BME280;58908;51.426;7.714;2023-11-21T03:39:07;99172.59;;;6.22;100.00
71195;BME280;58908;51.426;7.714;2023-11-21T03:41:33;99176.97;;;6.22;100.00
71195;BME280;58908;51.426;7.714;2023-11-21T03:43:59;99179.50;;;6.23;100.00
71195;BME280;58908;51.426;7.714;2023-11-21T03:46:26;99183.75;;;6.26;100.00
71195;BME280;58908;51.426;7.714;2023-11-21T03:48:53;99184.47;;;6.29;100.00
71195;BME280;58908;51.426;7.714;2023-11-21T03:51:20;99188.69;;;6.32;100.00
71195;BME280;58908;51.426;7.714;2023-11-21T03:53:47;99187.69;;;6.34;100.00
71195;BME280;58908;51.426;7.714;2023-11-21T03:56:13;99189.47;;;6.34;100.00
71195;BME280;58908;51.426;7.714;2023-11-21T03:58:39;99185.94;;;6.35;100.00
71195;BME280;58908;51.426;7.714;2023-11-21T04:01:06;99199.03;;;6.35;100.00
71195;BME280;58908;51.426;7.714;2023-11-21T04:03:32;99201.56;;;6.36;100.00
71195;BME280;58908;51.426;7.714;2023-11-21T04:06:00;99204.94;;;6.38;100.00
71195;BME280;58908;51.426;7.714;2023-11-21T04:08:27;99208.44;;;6.39;100.00
71195;BME280;58908;51.426;7.714;2023-11-21T04:10:53;99208.38;;;6.40;100.00
71195;BME280;58908;51.426;7.714;2023-11-21T04:13:20;99218.69;;;6.43;100.00
71195;BME280;58908;51.426;7.714;2023-11-21T04:15:46;99214.28;;;6.44;100.00
71195;BME280;58908;51.426;7.714;2023-11-21T04:18:13;99220.44;;;6.43;100.00
71195;BME280;58908;51.426;7.714;2023-11-21T04:20:39;99216.06;;;6.43;100.00
71195;BME280;58908;51.426;7.714;2023-11-21T04:23:07;99227.63;;;6.39;100.00
71195;BME280;58908;51.426;7.714;2023-11-21T04:25:35;99224.09;;;6.40;100.00
71195;BME280;58908;51.426;7.714;2023-11-21T04:28:01;99239.78;;;6.40;100.00
71195;BME280;58908;51.426;7.714;2023-11-21T04:30:28;99237.09;;;6.42;100.00
71195;BME280;58908;51.426;7.714;2023-11-21T04:32:54;99233.53;;;6.43;100.00
71195;BME280;58908;51.426;7.714;2023-11-21T04:35:20;99231.72;;;6.45;100.00
71195;BME280;58908;51.426;7.714;2023-11-21T04:37:47;99225.47;;;6.47;100.00
71195;BME280;58908;51.426;7.714;2023-11-21T04:40:14;99225.47;;;6.47;100.00
71195;BME280;58908;51.426;7.714;2023-11-21T04:42:41;99218.47;;;6.48;100.00
71195;BME280;58908;51.426;7.714;2023-11-21T04:45:08;99227.16;;;6.48;100.00
71195;BME280;58908;51.426;7.714;2023-11-21T04:47:36;99226.22;;;6.49;100.00
71195;BME280;58908;51.426;7.714;2023-11-21T04:50:03;99227.84;;;6.52;100.00
71195;BME280;58908;51.426;7.714;2023-11-21T04:52:29;99235.66;;;6.53;100.00
71195;BME280;58908;51.426;7.714;2023-11-21T04:54:55;99239.19;;;6.52;100.00
71195;BME280;58908;51.426;7.714;2023-11-21T04:57:24;99234.78;;;6.53;100.00
71195;BME280;58908;51.426;7.714;2023-11-21T04:59:51;99234.78;;;6.53;100.00
71195;BME280;58908;51.426;7.714;2023-11-21T05:02:17;99231.94;;;6.57;100.00
71195;BME280;58908;51.426;7.714;2023-11-21T05:04:44;99230.78;;;6.63;100.00
71195;BME280;58908;51.426;7.714;2023-11-21T05:07:10;99241.97;;;6.66;100.00
71195;BME280;58908;51.426;7.714;2023-11-21T05:09:37;99240.22;;;6.67;100.00
71195;BME280;58908;51.426;7.714;2023-11-21T05:12:07;99234.97;;;6.67;100.00
71195;BME280;58908;51.426;7.714;2023-11-21T05:14:34;99238.44;;;6.67;100.00
71195;BME280;58908;51.426;7.714;2023-11-21T05:17:01;99242.84;;;6.67;100.00
71195;BME280;58908;51.426;7.714;2023-11-21T05:19:29;99234.97;;;6.67;100.00
71195;BME280;58908;51.426;7.714;2023-11-21T05:21:55;99239.28;;;6.68;100.00
71195;BME280;58908;51.426;7.714;2023-11-21T05:24:21;99239.13;;;6.71;100.00
71195;BME280;58908;51.426;7.714;2023-11-21T05:26:48;99236.44;;;6.72;100.00
71195;BME280;58908;51.426;7.714;2023-11-21T05:29:14;99244.22;;;6.74;100.00
71195;BME280;58908;51.426;7.714;2023-11-21T05:31:42;99243.28;;;6.75;100.00
71195;BME280;58908;51.426;7.714;2023-11-21T05:34:08;99248.63;;;6.73;100.00
71195;BME280;58908;51.426;7.714;2023-11-21T05:36:34;99251.31;;;6.72;100.00
71195;BME280;58908;51.426;7.714;2023-11-21T05:39:00;99252.16;;;6.72;100.00
71195;BME280;58908;51.426;7.714;2023-11-21T05:41:28;99258.19;;;6.74;100.00
71195;BME280;58908;51.426;7.714;2023-11-21T05:43:55;99260.63;;;6.77;100.00
71195;BME280;58908;51.426;7.714;2023-11-21T05:46:21;99261.50;;;6.78;100.00
71195;BME280;58908;51.426;7.714;2023-11-21T05:48:49;99264.13;;;6.78;100.00
71195;BME280;58908;51.426;7.714;2023-11-21T05:51:15;99264.13;;;6.78;100.00
71195;BME280;58908;51.426;7.714;2023-11-21T05:53:42;99271.06;;;6.79;100.00
71195;BME280;58908;51.426;7.714;2023-11-21T05:56:08;99263.19;;;6.79;100.00
71195;BME280;58908;51.426;7.714;2023-11-21T05:58:35;99276.97;;;6.82;100.00
71195;BME280;58908;51.426;7.714;2023-11-21T06:01:01;99280.38;;;6.84;100.00
71195;BME280;58908;51.426;7.714;2023-11-21T06:03:29;99285.47;;;6.87;100.00
71195;BME280;58908;51.426;7.714;2023-11-21T06:05:56;99291.47;;;6.89;100.00
71195;BME280;58908;51.426;7.714;2023-11-21T06:08:22;99294.88;;;6.91;100.00
71195;BME280;58908;51.426;7.714;2023-11-21T06:10:49;99293.13;;;6.92;100.00
71195;BME280;58908;51.426;7.714;2023-11-21T06:13:16;99300.88;;;6.93;100.00
71195;BME280;58908;51.426;7.714;2023-11-21T06:15:45;99300.13;;;6.91;100.00
71195;BME280;58908;51.426;7.714;2023-11-21T06:18:12;99302.66;;;6.93;100.00
71195;BME280;58908;51.426;7.714;2023-11-21T06:20:38;99304.31;;;6.95;100.00
71195;BME280;58908;51.426;7.714;2023-11-21T06:23:06;99310.31;;;6.97;100.00
71195;BME280;58908;51.426;7.714;2023-11-21T06:25:32;99314.63;;;6.98;100.00
71195;BME280;58908;51.426;7.714;2023-11-21T06:28:01;99314.53;;;6.99;100.00
71195;BME280;58908;51.426;7.714;2023-11-21T06:30:27;99315.47;;;6.98;100.00
71195;BME280;58908;51.426;7.714;2023-11-21T06:32:54;99314.53;;;6.99;100.00
71195;BME280;58908;51.426;7.714;2023-11-21T06:35:21;99325.81;;;7.02;100.00
71195;BME280;58908;51.426;7.714;2023-11-21T06:37:47;99322.28;;;7.03;100.00
71195;BME280;58908;51.426;7.714;2023-11-21T06:40:15;99328.44;;;7.02;100.00
71195;BME280;58908;51.426;7.714;2023-11-21T06:42:41;99320.56;;;7.02;100.00
71195;BME280;58908;51.426;7.714;2023-11-21T06:45:09;99335.44;;;7.01;100.00
71195;BME280;58908;51.426;7.714;2023-11-21T06:47:35;99336.44;;;6.98;100.00
71195;BME280;58908;51.426;7.714;2023-11-21T06:50:03;99333.81;;;6.98;100.00
71195;BME280;58908;51.426;7.714;2023-11-21T06:52:29;99338.22;;;6.98;100.00
71195;BME280;58908;51.426;7.714;2023-11-21T06:54:55;99339.97;;;6.97;100.00
71195;BME280;58908;51.426;7.714;2023-11-21T06:57:23;99346.91;;;6.98;100.00
71195;BME280;58908;51.426;7.714;2023-11-21T06:59:50;99349.47;;;7.00;100.00
71195;BME280;58908;51.426;7.714;2023-11-21T07:02:16;99353.78;;;7.01;100.00
71195;BME280;58908;51.426;7.714;2023-11-21T07:04:43;99361.59;;;7.03;100.00
71195;BME280;58908;51.426;7.714;2023-11-21T07:07:10;99366.13;;;6.99;100.00
71195;BME280;58908;51.426;7.714;2023-11-21T07:09:36;99374.06;;;6.97;100.00
71195;BME280;58908;51.426;7.714;2023-11-21T07:12:03;99374.16;;;6.96;100.00
71195;BME280;58908;51.426;7.714;2023-11-21T07:14:33;99377.47;;;6.99;100.00
71195;BME280;58908;51.426;7.714;2023-11-21T07:17:00;99380.72;;;7.04;100.00
71195;BME280;58908;51.426;7.714;2023-11-21T07:19:26;99388.59;;;7.04;100.00
71195;BME280;58908;51.426;7.714;2023-11-21T07:21:52;99383.28;;;7.06;100.00
71195;BME280;58908;51.426;7.714;2023-11-21T07:24:18;99396.25;;;7.09;100.00
71195;BME280;58908;51.426;7.714;2023-11-21T07:26:45;99402.25;;;7.11;100.00
71195;BME280;58908;51.426;7.714;2023-11-21T07:29:13;99404.72;;;7.14;100.00
71195;BME280;58908;51.426;7.714;2023-11-21T07:31:40;99406.34;;;7.16;100.00
71195;BME280;58908;51.426;7.714;2023-11-21T07:34:07;99413.13;;;7.20;100.00
71195;BME280;58908;51.426;7.714;2023-11-21T07:36:33;99415.69;;;7.22;100.00
71195;BME280;58908;51.426;7.714;2023-11-21T07:39:00;99428.66;;;7.25;100.00
71195;BME280;58908;51.426;7.714;2023-11-21T07:41:27;99423.28;;;7.28;100.00
71195;BME280;58908;51.426;7.714;2023-11-21T07:43:54;99427.72;;;7.26;100.00
71195;BME280;58908;51.426;7.714;2023-11-21T07:46:21;99435.47;;;7.29;100.00
71195;BME280;58908;51.426;7.714;2023-11-21T07:48:48;99432.75;;;7.30;100.00
71195;BME280;58908;51.426;7.714;2023-11-21T07:51:15;99433.50;;;7.32;100.00
71195;BME280;58908;51.426;7.714;2023-11-21T07:53:42;99441.25;;;7.35;100.00
71195;BME280;58908;51.426;7.714;2023-11-21T07:56:08;99442.03;;;7.37;100.00
71195;BME280;58908;51.426;7.714;2023-11-21T07:58:35;99439.19;;;7.42;100.00
71195;BME280;58908;51.426;7.714;2023-11-21T08:01:02;99437.38;;;7.42;100.00
71195;BME280;58908;51.426;7.714;2023-11-21T08:03:28;99433.75;;;7.45;100.00
71195;BME280;58908;51.426;7.714;2023-11-21T08:05:56;99432.78;;;7.47;100.00
71195;BME280;58908;51.426;7.714;2023-11-21T08:08:23;99439.72;;;7.48;100.00
71195;BME280;58908;51.426;7.714;2023-11-21T08:10:49;99440.41;;;7.52;100.00
71195;BME280;58908;51.426;7.714;2023-11-21T08:13:21;99443.81;;;7.54;100.00
71195;BME280;58908;51.426;7.714;2023-11-21T08:15:47;99440.09;;;7.58;100.00
71195;BME280;58908;51.426;7.714;2023-11-21T08:18:13;99447.91;;;7.59;100.00
71195;BME280;58908;51.426;7.714;2023-11-21T08:20:41;99449.53;;;7.62;100.00
71195;BME280;58908;51.426;7.714;2023-11-21T08:23:09;99451.94;;;7.66;100.00
71195;BME280;58908;51.426;7.714;2023-11-21T08:25:35;99460.09;;;7.77;100.00
71195;BME280;58908;51.426;7.714;2023-11-21T08:28:02;99459.03;;;7.81;100.00
71195;BME280;58908;51.426;7.714;2023-11-21T08:30:29;99460.50;;;7.87;100.00
71195;BME280;58908;51.426;7.714;2023-11-21T08:32:55;99474.31;;;7.90;100.00
71195;BME280;58908;51.426;7.714;2023-11-21T08:35:23;99468.97;;;7.92;100.00
71195;BME280;58908;51.426;7.714;2023-11-21T08:37:50;99484.03;;;7.88;100.00
71195;BME280;58908;51.426;7.714;2023-11-21T08:40:19;99490.59;;;7.80;100.00
71195;BME280;58908;51.426;7.714;2023-11-21T08:42:46;99488.28;;;7.91;100.00
71195;BME280;58908;51.426;7.714;2023-11-21T08:45:13;99497.16;;;7.88;100.00
71195;BME280;58908;51.426;7.714;2023-11-21T08:47:39;99503.88;;;7.94;100.00
71195;BME280;58908;51.426;7.714;2023-11-21T08:50:06;99510.06;;;7.93;100.00
71195;BME280;58908;51.426;7.714;2023-11-21T08:52:32;99520.66;;;7.91;100.00
71195;BME280;58908;51.426;7.714;2023-11-21T08:54:59;99526.59;;;7.78;100.00
71195;BME280;58908;51.426;7.714;2023-11-21T08:57:34;99533.00;;;7.72;100.00
71195;BME280;58908;51.426;7.714;2023-11-21T09:00:00;99539.31;;;7.68;100.00
71195;BME280;58908;51.426;7.714;2023-11-21T09:02:26;99545.56;;;7.66;100.00
71195;BME280;58908;51.426;7.714;2023-11-21T09:04:56;99554.06;;;7.71;100.00
71195;BME280;58908;51.426;7.714;2023-11-21T09:07:24;99557.22;;;7.77;100.00
71195;BME280;58908;51.426;7.714;2023-11-21T09:09:50;99563.72;;;7.87;100.00
71195;BME280;58908;51.426;7.714;2023-11-21T09:12:16;99557.25;;;7.94;100.00
71195;BME280;58908;51.426;7.714;2023-11-21T09:14:45;99563.22;;;7.98;100.00
71195;BME280;58908;51.426;7.714;2023-11-21T09:17:12;99570.16;;;7.99;100.00
71195;BME280;58908;51.426;7.714;2023-11-21T09:19:39;99573.63;;;7.99;100.00
71195;BME280;58908;51.426;7.714;2023-11-21T09:22:05;99570.00;;;8.02;100.00
71195;BME280;58908;51.426;7.714;2023-11-21T09:24:32;99568.09;;;8.05;100.00
71195;BME280;58908;51.426;7.714;2023-11-21T09:26:58;99578.38;;;8.10;100.00
71195;BME280;58908;51.426;7.714;2023-11-21T09:29:25;99580.06;;;8.11;100.00
71195;BME280;58908;51.426;7.714;2023-11-21T09:31:52;99589.72;;;8.10;100.00
71195;BME280;58908;51.426;7.714;2023-11-21T09:34:19;99594.97;;;8.10;100.00
71195;BME280;58908;51.426;7.714;2023-11-21T09:36:46;99599.38;;;8.10;100.00
71195;BME280;58908;51.426;7.714;2023-11-21T09:39:12;99604.47;;;8.13;100.00
71195;BME280;58908;51.426;7.714;2023-11-21T09:41:40;99609.66;;;8.14;100.00
71195;BME280;58908;51.426;7.714;2023-11-21T09:44:09;99608.72;;;8.15;100.00
71195;BME280;58908;51.426;7.714;2023-11-21T09:46:38;99612.28;;;8.14;100.00
71195;BME280;58908;51.426;7.714;2023-11-21T09:49:08;99623.63;;;8.15;100.00
71195;BME280;58908;51.426;7.714;2023-11-21T09:51:37;99622.97;;;8.11;100.00
71195;BME280;58908;51.426;7.714;2023-11-21T09:54:05;99625.59;;;8.11;100.00
71195;BME280;58908;51.426;7.714;2023-11-21T09:56:34;99630.91;;;8.10;100.00
71195;BME280;58908;51.426;7.714;2023-11-21T09:59:01;99642.63;;;8.03;100.00
71195;BME280;58908;51.426;7.714;2023-11-21T10:01:31;99648.44;;;8.09;100.00
71195;BME280;58908;51.426;7.714;2023-11-21T10:03:58;99646.16;;;8.20;100.00
71195;BME280;58908;51.426;7.714;2023-11-21T10:06:26;99645.66;;;8.31;100.00
71195;BME280;58908;51.426;7.714;2023-11-21T10:08:52;99635.13;;;8.31;100.00
71195;BME280;58908;51.426;7.714;2023-11-21T10:11:21;99641.94;;;8.35;100.00
71195;BME280;58908;51.426;7.714;2023-11-21T10:13:49;99647.59;;;8.44;100.00
71195;BME280;58908;51.426;7.714;2023-11-21T10:16:19;99644.31;;;8.39;100.00
71195;BME280;58908;51.426;7.714;2023-11-21T10:18:47;99643.41;;;8.40;100.00
71195;BME280;58908;51.426;7.714;2023-11-21T10:21:14;99652.28;;;8.38;100.00
71195;BME280;58908;51.426;7.714;2023-11-21T10:23:42;99659.56;;;8.33;100.00
71195;BME280;58908;51.426;7.714;2023-11-21T10:26:08;99653.38;;;8.34;100.00
71195;BME280;58908;51.426;7.714;2023-11-21T10:28:41;99665.75;;;8.32;100.00
71195;BME280;58908;51.426;7.714;2023-11-21T10:31:07;99663.28;;;8.29;100.00
71195;BME280;58908;51.426;7.714;2023-11-21T10:33:34;99672.63;;;8.16;100.00
71195;BME280;58908;51.426;7.714;2023-11-21T10:36:00;99666.19;;;8.23;100.00
71195;BME280;58908;51.426;7.714;2023-11-21T10:38:27;99670.22;;;8.30;100.00
71195;BME280;58908;51.426;7.714;2023-11-21T10:40:56;99678.22;;;8.27;100.00
71195;BME280;58908;51.426;7.714;2023-11-21T10:43:24;99676.25;;;8.32;100.00
71195;BME280;58908;51.426;7.714;2023-11-21T10:45:51;99679.25;;;8.24;100.00
71195;BME280;58908;51.426;7.714;2023-11-21T10:48:17;99672.75;;;8.31;100.00
71195;BME280;58908;51.426;7.714;2023-11-21T10:50:43;99683.28;;;8.31;100.00
71195;BME280;58908;51.426;7.714;2023-11-21T10:53:10;99683.97;;;8.35;100.00
71195;BME280;58908;51.426;7.714;2023-11-21T10:55:37;99686.97;;;8.27;100.00
71195;BME280;58908;51.426;7.714;2023-11-21T10:58:05;99687.25;;;8.21;100.00
71195;BME280;58908;51.426;7.714;2023-11-21T11:00:32;99693.44;;;8.20;100.00
71195;BME280;58908;51.426;7.714;2023-11-21T11:02:59;99692.78;;;8.34;100.00
71195;BME280;58908;51.426;7.714;2023-11-21T11:05:26;99689.31;;;8.33;100.00
71195;BME280;58908;51.426;7.714;2023-11-21T11:07:56;99703.56;;;8.46;100.00
71195;BME280;58908;51.426;7.714;2023-11-21T11:10:25;99703.94;;;8.56;100.00
71195;BME280;58908;51.426;7.714;2023-11-21T11:12:52;99711.13;;;8.52;100.00
71195;BME280;58908;51.426;7.714;2023-11-21T11:15:20;99714.69;;;8.51;100.00
71195;BME280;58908;51.426;7.714;2023-11-21T11:17:46;99722.03;;;8.45;100.00
71195;BME280;58908;51.426;7.714;2023-11-21T11:20:14;99719.44;;;8.26;100.00
71195;BME280;58908;51.426;7.714;2023-11-21T11:22:42;99716.09;;;8.23;100.00
71195;BME280;58908;51.426;7.714;2023-11-21T11:25:14;99720.38;;;8.25;100.00
71195;BME280;58908;51.426;7.714;2023-11-21T11:27:48;99721.69;;;8.15;100.00
71195;BME280;58908;51.426;7.714;2023-11-21T11:30:21;99717.22;;;8.17;100.00
71195;BME280;58908;51.426;7.714;2023-11-21T11:32:54;99714.56;;;8.19;100.00
71195;BME280;58908;51.426;7.714;2023-11-21T11:35:24;99706.88;;;8.14;100.00
71195;BME280;58908;51.426;7.714;2023-11-21T11:37:52;99716.59;;;8.12;100.00
71195;BME280;58908;51.426;7.714;2023-11-21T11:40:19;99714.59;;;8.17;100.00
71195;BME280;58908;51.426;7.714;2023-11-21T11:42:55;99718.59;;;8.07;100.00
71195;BME280;58908;51.426;7.714;2023-11-21T11:45:23;99720.38;;;8.07;100.00
71195;BME280;58908;51.426;7.714;2023-11-21T11:47:58;99724.50;;;8.12;100.00
71195;BME280;58908;51.426;7.714;2023-11-21T11:50:26;99716.72;;;8.09;100.00
71195;BME280;58908;51.426;7.714;2023-11-21T11:52:52;99708.44;;;8.00;100.00
71195;BME280;58908;51.426;7.714;2023-11-21T11:55:23;99717.31;;;7.97;100.00
71195;BME280;58908;51.426;7.714;2023-11-21T11:57:51;99717.69;;;7.90;100.00
71195;BME280;58908;51.426;7.714;2023-11-21T12:00:17;99722.78;;;7.93;100.00
71195;BME280;58908;51.426;7.714;2023-11-21T12:02:51;99727.25;;;7.91;100.00
71195;BME280;58908;51.426;7.714;2023-11-21T12:05:18;99722.66;;;7.96;100.00
71195;BME280;58908;51.426;7.714;2023-11-21T12:07:45;99731.31;;;7.98;100.00
71195;BME280;58908;51.426;7.714;2023-11-21T12:10:13;99728.59;;;7.99;100.00
71195;BME280;58908;51.426;7.714;2023-11-21T12:12:43;99730.22;;;8.02;100.00
71195;BME280;58908;51.426;7.714;2023-11-21T12:15:11;99732.94;;;8.00;100.00
71195;BME280;58908;51.426;7.714;2023-11-21T12:17:37;99734.44;;;8.06;100.00
71195;BME280;58908;51.426;7.714;2023-11-21T12:20:06;99741.38;;;8.07;100.00
71195;BME280;58908;51.426;7.714;2023-11-21T12:22:39;99745.22;;;8.00;100.00
71195;BME280;58908;51.426;7.714;2023-11-21T12:25:06;99748.25;;;7.91;100.00
71195;BME280;58908;51.426;7.714;2023-11-21T12:27:33;99749.91;;;7.93;100.00
71195;BME280;58908;51.426;7.714;2023-11-21T12:30:00;99747.91;;;7.98;100.00
71195;BME280;58908;51.426;7.714;2023-11-21T12:32:26;99743.47;;;8.00;100.00
71195;BME280;58908;51.426;7.714;2023-11-21T12:34:52;99742.59;;;8.00;100.00
71195;BME280;58908;51.426;7.714;2023-11-21T12:37:21;99755.44;;;7.87;100.00
71195;BME280;58908;51.426;7.714;2023-11-21T12:39:47;99766.28;;;7.80;100.00
71195;BME280;58908;51.426;7.714;2023-11-21T12:42:14;99759.19;;;7.82;100.00
71195;BME280;58908;51.426;7.714;2023-11-21T12:44:41;99765.94;;;7.87;100.00
71195;BME280;58908;51.426;7.714;2023-11-21T12:47:09;99761.97;;;7.79;100.00
71195;BME280;58908;51.426;7.714;2023-11-21T12:49:39;99760.41;;;7.75;100.00
71195;BME280;58908;51.426;7.714;2023-11-21T12:52:09;99757.78;;;7.75;100.00
71195;BME280;58908;51.426;7.714;2023-11-21T12:54:38;99760.47;;;7.73;100.00
71195;BME280;58908;51.426;7.714;2023-11-21T12:57:04;99759.69;;;7.71;100.00
71195;BME280;58908;51.426;7.714;2023-11-21T12:59:33;99763.88;;;7.75;100.00